Archiv-/Tagesdaten

--Timestamp---	Temp	Chill	HIndex	Humid	Dewpt	Wind	HiWind	WindDir	Rain	Barom	        Solar	ET	UV
--------------	----	-----	------	-----	-----	----	------	-------	----	-----	        -----	--	--
20081004 00:05	5.5	5.5	5.5	85	3.2	2	5	247	0.00	1012.702	0	0.000	0
20081004 00:10	5.5	5.5	5.5	85	3.2	2	5	247	0.00	1012.669	0	0.000	0
20081004 00:15	5.5	5.5	5.5	85	3.2	2	5	247	0.00	1012.702	0	0.000	0
20081004 00:20	5.5	5.5	5.5	85	3.2	2	6	247	0.00	1012.702	0	0.000	0
20081004 00:25	5.5	5.5	5.5	85	3.2	2	5	247	0.00	1012.736	0	0.000	0
20081004 00:30	5.5	5.5	5.5	85	3.2	0	5	247	0.00	1012.804	0	0.000	0
20081004 00:35	5.6	5.6	5.6	85	3.2	2	8	247	0.00	1012.770	0	0.000	0
20081004 00:40	5.6	5.6	5.6	84	3.1	3	6	225	0.00	1012.770	0	0.000	0
20081004 00:45	5.6	5.6	5.6	84	3.1	3	6	225	0.00	1012.770	0	0.000	0
20081004 00:50	5.7	5.7	5.7	84	3.2	3	5	225	0.00	1012.736	0	0.000	0
20081004 00:55	5.7	5.7	5.7	84	3.2	0	3	225	0.00	1012.736	0	0.000	0
20081004 01:00	5.7	5.7	5.7	84	3.2	0	3	225	0.00	1012.635	0	0.000	0
20081004 01:05	5.7	5.7	5.7	84	3.2	0	5	225	0.00	1012.770	0	0.000	0
20081004 01:10	5.7	5.7	5.7	84	3.2	0	6	225	0.00	1012.838	0	0.000	0
20081004 01:15	5.8	5.8	5.8	83	3.1	2	8	225	0.00	1012.838	0	0.000	0
20081004 01:20	5.8	5.8	5.8	83	3.1	2	5	225	0.00	1012.804	0	0.000	0
20081004 01:25	5.8	5.8	5.8	83	3.2	2	5	225	0.00	1012.838	0	0.000	0
20081004 01:30	5.8	5.8	5.8	83	3.2	2	5	225	0.00	1012.736	0	0.000	0
20081004 01:35	5.8	5.8	5.8	83	3.2	2	5	225	0.00	1012.736	0	0.000	0
20081004 01:40	5.8	5.8	5.8	83	3.2	0	3	225	0.00	1012.838	0	0.000	0
20081004 01:45	5.8	5.8	5.8	85	3.5	0	2	225	0.00	1012.838	0	0.000	0
20081004 01:50	5.7	5.7	5.7	85	3.4	0	5	225	0.00	1012.973	0	0.000	0
20081004 01:55	5.6	5.6	5.6	86	3.5	2	6	225	0.00	1012.939	0	0.000	0
20081004 02:00	5.5	5.5	5.5	86	3.3	2	6	225	0.00	1012.973	0	0.000	0
20081004 02:05	5.4	5.4	5.4	86	3.3	3	6	225	0.00	1012.804	0	0.000	0
20081004 02:10	5.3	5.3	5.3	86	3.2	3	10	225	0.00	1012.872	0	0.000	0
20081004 02:15	5.3	5.3	5.3	87	3.3	3	8	202	0.00	1012.804	0	0.000	0
20081004 02:20	5.2	5.2	5.2	87	3.2	3	6	202	0.00	1012.838	0	0.000	0
20081004 02:25	5.2	5.2	5.2	87	3.2	3	6	202	0.00	1013.007	0	0.000	0
20081004 02:30	5.2	5.2	5.2	87	3.2	2	5	202	0.00	1012.973	0	0.000	0
20081004 02:35	5.1	5.1	5.1	88	3.3	0	5	202	0.00	1013.007	0	0.000	0
20081004 02:40	5.1	5.1	5.1	88	3.3	2	5	202	0.00	1013.075	0	0.000	0
20081004 02:45	5.1	5.1	5.1	88	3.2	2	6	202	0.00	1013.143	0	0.000	0
20081004 02:50	5.1	5.1	5.1	88	3.2	2	6	202	0.00	1013.109	0	0.000	0
20081004 02:55	5.0	5.0	5.0	88	3.2	2	5	202	0.00	1013.177	0	0.000	0
20081004 03:00	4.9	4.9	4.9	89	3.3	2	5	202	0.00	1013.210	0	0.000	0
20081004 03:05	4.9	4.9	4.9	88	3.1	2	5	202	0.00	1013.210	0	0.000	0
20081004 03:10	4.8	4.8	4.8	88	3.0	2	5	202	0.00	1013.210	0	0.000	0
20081004 03:15	4.8	4.8	4.8	88	3.0	0	3	202	0.00	1013.177	0	0.000	0
20081004 03:20	4.8	4.8	4.8	88	3.0	3	10	247	0.00	1013.244	0	0.000	0
20081004 03:25	4.8	4.8	4.8	87	2.8	3	8	247	0.00	1013.210	0	0.000	0
20081004 03:30	4.8	4.8	4.8	86	2.6	3	6	270	0.00	1013.210	0	0.000	0
20081004 03:35	4.8	4.8	4.8	86	2.7	5	8	247	0.00	1013.244	0	0.000	0
20081004 03:40	4.9	4.9	4.9	86	2.8	5	10	247	0.00	1013.278	0	0.000	0
20081004 03:45	5.0	5.0	5.0	85	2.7	5	11	247	0.00	1013.278	0	0.000	0
20081004 03:50	5.1	5.1	5.1	85	2.7	3	6	247	0.00	1013.346	0	0.000	0
20081004 03:55	5.1	5.1	5.1	84	2.6	5	10	270	0.00	1013.312	0	0.000	0
20081004 04:00	5.1	5.1	5.1	84	2.6	5	8	270	0.00	1013.346	0	0.000	0
20081004 04:05	5.2	3.8	5.2	83	2.5	6	11	292	0.00	1013.278	0	0.000	0
20081004 04:10	5.3	5.3	5.3	83	2.6	5	14	292	0.00	1013.312	0	0.000	0
20081004 04:15	5.3	3.5	5.3	82	2.5	8	14	270	0.00	1013.312	0	0.000	0
20081004 04:20	5.3	4.0	5.3	82	2.5	6	16	292	0.00	1013.244	0	0.000	0
20081004 04:25	5.4	5.4	5.4	82	2.6	5	18	247	0.00	1013.312	0	0.000	0
20081004 04:30	5.4	4.0	5.4	82	2.6	6	11	270	0.00	1013.312	0	0.000	0
20081004 04:35	5.4	4.1	5.4	82	2.6	6	16	270	0.00	1013.380	0	0.000	0
20081004 04:40	5.4	5.4	5.4	82	2.6	5	14	247	0.00	1013.380	0	0.000	0
20081004 04:45	5.4	4.0	5.4	82	2.6	6	11	247	0.00	1013.312	0	0.000	0
20081004 04:50	5.3	4.0	5.3	82	2.5	6	13	247	0.00	1013.414	0	0.000	0
20081004 04:55	5.3	5.3	5.3	82	2.5	5	10	247	0.00	1013.447	0	0.000	0
20081004 05:00	5.3	5.3	5.3	82	2.5	5	10	247	0.00	1013.481	0	0.020	0
20081004 05:05	5.2	3.9	5.2	82	2.4	6	11	270	0.00	1013.549	0	0.000	0
20081004 05:10	5.2	3.9	5.2	82	2.4	6	10	247	0.00	1013.718	0	0.000	0
20081004 05:15	5.2	3.8	5.2	82	2.3	6	16	247	0.00	1013.718	0	0.000	0
20081004 05:20	5.2	5.2	5.2	82	2.3	5	11	247	0.00	1013.820	0	0.000	0
20081004 05:25	5.1	3.7	5.1	82	2.2	6	16	270	0.00	1013.922	0	0.000	0
20081004 05:30	5.1	3.7	5.1	82	2.2	6	14	247	0.00	1013.989	0	0.000	0
20081004 05:35	4.9	3.5	4.9	83	2.3	6	16	270	0.00	1014.023	0	0.000	0
20081004 05:40	4.9	3.5	4.9	83	2.2	6	10	247	0.00	1014.057	0	0.000	0
20081004 05:45	4.8	4.8	4.8	84	2.4	5	14	247	0.00	1014.125	0	0.000	0
20081004 05:50	4.9	3.5	4.9	84	2.4	6	10	247	0.00	1014.260	0	0.000	0
20081004 05:55	4.9	3.5	4.9	84	2.5	6	16	247	0.00	1014.328	0	0.000	0
20081004 06:00	5.0	3.6	5.0	84	2.5	6	16	247	0.00	1014.226	0	0.020	0
20081004 06:05	5.1	3.2	5.1	83	2.4	8	16	247	0.00	1014.429	0	0.000	0
20081004 06:10	5.1	3.7	5.1	83	2.4	6	14	247	0.00	1014.633	0	0.000	0
20081004 06:15	5.1	3.7	5.1	83	2.4	6	14	247	0.00	1014.666	0	0.000	0
20081004 06:20	5.0	3.6	5.0	83	2.4	6	14	270	0.00	1014.734	0	0.000	0
20081004 06:25	4.9	3.5	4.9	84	2.5	6	18	247	0.00	1014.734	0	0.000	0
20081004 06:30	5.0	3.6	5.0	84	2.5	6	16	247	0.00	1014.666	0	0.000	0
20081004 06:35	5.0	3.6	5.0	84	2.5	6	18	270	0.00	1014.666	0	0.000	0
20081004 06:40	5.1	3.2	5.1	84	2.6	8	19	270	0.00	1014.768	0	0.000	0
20081004 06:45	5.1	2.8	5.1	83	2.4	10	21	247	0.00	1014.904	0	0.000	0
20081004 06:50	5.1	3.2	5.1	84	2.6	8	16	270	0.00	1014.971	0	0.000	0
20081004 06:55	5.1	3.7	5.1	84	2.6	6	11	247	0.00	1014.971	0	0.000	0
20081004 07:00	5.1	3.7	5.1	84	2.6	6	16	247	0.00	1015.107	0	0.020	0
20081004 07:05	5.1	5.1	5.1	83	2.4	5	11	270	0.00	1015.141	0	0.000	0
20081004 07:10	5.1	3.7	5.1	83	2.4	6	18	270	0.00	1015.174	0	0.000	0
20081004 07:15	5.1	3.7	5.1	84	2.6	6	14	247	0.00	1015.174	0	0.000	0
20081004 07:20	5.1	3.7	5.1	84	2.6	6	16	247	0.00	1015.242	0	0.000	0
20081004 07:25	5.1	3.7	5.1	84	2.6	6	16	247	0.00	1015.344	0	0.000	0
20081004 07:30	5.1	3.2	5.1	83	2.4	8	18	270	0.00	1015.479	0	0.000	0
20081004 07:35	5.1	2.5	5.1	83	2.4	11	21	270	0.00	1015.581	0	0.000	0
20081004 07:40	5.1	2.2	5.1	84	2.6	13	27	270	0.00	1015.649	0	0.000	0
20081004 07:45	4.8	2.5	4.8	81	1.8	10	31	292	0.20	1015.615	3	0.000	0
20081004 07:50	4.6	4.6	4.6	84	2.1	3	10	292	0.00	1015.581	7	0.000	0
20081004 07:55	4.5	4.5	4.5	86	2.4	3	8	292	0.00	1015.649	10	0.000	0
20081004 08:00	4.6	4.6	4.6	87	2.6	3	8	270	0.00	1015.649	11	0.020	0
20081004 08:05	4.6	4.6	4.6	87	2.6	5	8	247	0.00	1015.649	12	0.000	0
20081004 08:10	4.7	4.7	4.7	87	2.7	3	8	247	0.00	1015.716	14	0.000	0
20081004 08:15	4.7	4.7	4.7	87	2.7	3	8	247	0.00	1015.750	17	0.000	0
20081004 08:20	4.8	4.8	4.8	87	2.8	3	8	270	0.00	1015.818	21	0.000	0
20081004 08:25	4.8	4.8	4.8	87	2.9	5	8	270	0.00	1015.852	26	0.000	0
20081004 08:30	4.9	4.9	4.9	86	2.8	5	10	247	0.00	1015.953	34	0.000	0
20081004 08:35	5.0	5.0	5.0	91	3.7	5	14	270	0.00	1016.089	31	0.000	0
20081004 08:40	5.1	5.1	5.1	86	2.9	3	10	270	0.00	1016.021	36	0.000	0
20081004 08:45	5.1	5.1	5.1	87	3.1	5	8	247	0.00	1015.987	54	0.000	0
20081004 08:50	5.1	5.1	5.1	86	2.9	3	8	247	0.00	1016.021	71	0.000	0
20081004 08:55	5.2	5.2	5.2	86	3.0	5	11	270	0.00	1016.123	83	0.000	0
20081004 09:00	5.3	5.3	5.3	86	3.1	5	11	247	0.00	1016.156	77	0.020	0
20081004 09:05	5.3	5.3	5.3	86	3.2	3	11	247	0.00	1016.055	75	0.000	0
20081004 09:10	5.4	5.4	5.4	85	3.1	5	10	247	0.00	1016.089	83	0.000	0
20081004 09:15	5.6	5.6	5.6	85	3.2	5	13	247	0.00	1016.190	90	0.000	0
20081004 09:20	5.7	4.4	5.7	84	3.2	6	14	247	0.00	1016.224	104	0.000	0
20081004 09:25	5.8	4.5	5.8	84	3.3	6	18	270	0.00	1016.326	117	0.000	0
20081004 09:30	5.9	3.8	5.9	83	3.2	10	19	247	0.00	1016.360	121	0.000	0
20081004 09:35	6.0	3.9	6.0	83	3.3	10	21	270	0.00	1016.427	132	0.000	0
20081004 09:40	6.1	4.4	6.1	82	3.3	8	19	270	0.00	1016.529	130	0.000	0
20081004 09:45	6.2	4.5	6.2	82	3.3	8	18	247	0.00	1016.495	133	0.000	0
20081004 09:50	6.3	4.6	6.3	81	3.3	8	19	247	0.00	1016.631	134	0.000	0
20081004 09:55	6.3	4.3	6.3	81	3.3	10	21	270	0.00	1016.631	143	0.000	1
20081004 10:00	6.3	4.0	6.3	80	3.1	11	21	270	0.00	1016.698	164	0.040	1
20081004 10:05	6.4	4.5	6.4	79	3.1	10	24	247	0.00	1016.664	180	0.000	1
20081004 10:10	6.4	4.2	6.4	79	3.1	11	27	270	0.00	1016.698	178	0.000	1
20081004 10:15	6.5	4.5	6.5	79	3.1	10	23	270	0.00	1016.766	166	0.000	1
20081004 10:20	6.5	4.5	6.5	80	3.3	10	24	270	0.00	1016.800	161	0.000	1
20081004 10:25	6.3	4.3	6.3	81	3.3	10	19	270	0.00	1016.800	175	0.000	1
20081004 10:30	6.1	4.9	6.1	84	3.6	6	18	247	0.00	1016.901	127	0.000	1
20081004 10:35	6.0	4.8	6.0	85	3.7	6	11	247	0.00	1016.935	130	0.000	1
20081004 10:40	6.1	4.4	6.1	84	3.6	8	19	270	0.00	1016.901	158	0.000	1
20081004 10:45	6.1	4.4	6.1	83	3.4	8	18	247	0.00	1016.935	143	0.000	1
20081004 10:50	6.3	4.6	6.3	83	3.6	8	19	247	0.00	1016.935	226	0.000	1
20081004 10:55	6.4	3.9	6.4	81	3.4	13	24	247	0.00	1016.868	198	0.000	1
20081004 11:00	6.6	4.6	6.6	81	3.5	10	19	270	0.00	1017.003	203	0.060	1
20081004 11:05	6.6	5.0	6.6	81	3.6	8	18	247	0.00	1017.071	144	0.000	1
20081004 11:10	6.6	5.0	6.6	81	3.5	8	16	270	0.00	1017.071	154	0.000	1
20081004 11:15	6.6	5.0	6.6	81	3.5	8	18	225	0.00	1017.139	188	0.000	1
20081004 11:20	6.7	5.1	6.7	81	3.6	8	16	247	0.00	1017.206	206	0.000	1
20081004 11:25	6.7	4.7	6.7	81	3.6	10	18	270	0.00	1017.172	142	0.000	1
20081004 11:30	6.6	4.7	6.6	79	3.2	10	23	270	0.00	1017.105	119	0.000	1
20081004 11:35	6.5	4.5	6.5	79	3.1	10	24	270	0.00	1017.071	104	0.000	1
20081004 11:40	6.5	4.9	6.5	81	3.5	8	19	270	0.00	1017.139	89	0.000	0
20081004 11:45	6.5	4.9	6.5	80	3.3	8	21	270	0.00	1017.172	96	0.000	1
20081004 11:50	6.5	4.9	6.5	81	3.5	8	18	270	0.00	1017.240	86	0.000	0
20081004 11:55	6.3	4.0	6.3	81	3.3	11	21	270	0.00	1017.376	82	0.000	0
20081004 12:00	6.3	5.1	6.3	83	3.6	6	11	270	0.00	1017.511	94	0.060	1
20081004 12:05	6.1	3.7	6.1	84	3.6	11	24	292	0.20	1017.579	66	0.000	0
20081004 12:10	5.6	3.1	5.6	83	2.9	11	27	292	0.00	1017.545	54	0.000	0
20081004 12:15	5.3	3.5	5.3	84	2.9	8	16	292	0.20	1017.579	43	0.000	0
20081004 12:20	5.2	3.9	5.2	86	3.1	6	14	270	0.00	1017.748	60	0.000	0
20081004 12:25	5.3	5.3	5.3	88	3.5	5	10	292	0.20	1017.579	118	0.000	1
20081004 12:30	5.5	5.5	5.5	89	3.8	5	6	270	0.00	1017.613	170	0.000	1
20081004 12:35	5.8	5.8	5.8	89	4.2	5	13	270	0.00	1017.579	259	0.000	2
20081004 12:40	6.1	4.9	6.1	88	4.3	6	16	270	0.00	1017.545	148	0.000	1
20081004 12:45	6.2	5.0	6.2	87	4.2	6	14	292	0.00	1017.816	50	0.000	0
20081004 12:50	6.0	3.3	6.0	85	3.7	13	27	270	0.00	1017.850	131	0.000	1
20081004 12:55	5.9	3.2	5.9	86	3.7	13	23	270	0.00	1017.782	228	0.000	1
20081004 13:00	6.2	4.1	6.2	87	4.2	10	21	270	0.00	1017.714	336	0.060	2
20081004 13:05	6.6	5.0	6.6	86	4.4	8	21	270	0.00	1017.511	432	0.000	2
20081004 13:10	7.0	4.5	7.0	84	4.5	13	21	270	0.00	1017.511	244	0.000	2
20081004 13:15	7.2	5.1	7.2	84	4.7	11	24	270	0.00	1017.477	295	0.000	2
20081004 13:20	7.2	5.0	7.2	82	4.3	11	21	270	0.00	1017.579	172	0.000	1
20081004 13:25	7.1	5.0	7.1	82	4.2	11	26	270	0.00	1017.511	221	0.000	2
20081004 13:30	7.2	5.1	7.2	81	4.2	11	23	247	0.00	1017.511	311	0.000	2
20081004 13:35	7.5	5.7	7.5	81	4.5	10	19	247	0.00	1017.511	302	0.000	2
20081004 13:40	7.8	6.1	7.8	81	4.7	10	19	270	0.00	1017.274	489	0.000	2
20081004 13:45	7.9	6.2	7.9	79	4.5	10	19	247	0.00	1017.342	343	0.000	2
20081004 13:50	7.8	6.1	7.8	80	4.6	10	21	247	0.00	1017.308	209	0.000	1
20081004 13:55	7.8	6.1	7.8	79	4.4	10	18	247	0.00	1017.308	220	0.000	1
20081004 14:00	7.7	7.7	7.7	80	4.5	5	14	270	0.00	1017.342	147	0.120	1
20081004 14:05	7.6	6.1	7.6	79	4.1	8	19	247	0.00	1017.443	106	0.000	0
20081004 14:10	7.4	5.9	7.4	81	4.3	8	19	270	0.00	1017.579	86	0.000	0
20081004 14:15	6.9	5.1	6.9	80	3.7	10	23	292	1.00	1017.680	37	0.000	0
20081004 14:20	6.3	6.3	6.3	83	3.7	3	10	292	0.40	1017.748	31	0.000	0
20081004 14:25	6.0	4.8	6.0	86	3.8	6	16	292	0.00	1017.748	51	0.000	0
20081004 14:30	6.0	6.0	6.0	88	4.2	3	10	292	0.20	1017.748	116	0.000	0
20081004 14:35	6.2	4.9	6.2	89	4.5	6	16	292	0.00	1017.850	79	0.000	0
20081004 14:40	6.2	4.1	6.2	87	4.2	10	19	270	0.00	1017.917	25	0.000	0
20081004 14:45	5.9	4.7	5.9	87	3.9	6	14	247	0.00	1017.917	77	0.000	0
20081004 14:50	6.1	4.9	6.1	89	4.4	6	11	270	0.20	1017.951	215	0.000	1
20081004 14:55	6.4	5.2	6.4	89	4.7	6	16	270	0.00	1017.884	117	0.000	1
20081004 15:00	6.4	4.5	6.4	88	4.6	10	21	270	0.20	1017.985	69	0.040	0
20081004 15:05	6.7	5.6	6.7	89	5.0	6	18	292	0.00	1017.985	441	0.000	1
20081004 15:10	7.1	5.6	7.1	88	5.3	8	16	247	0.00	1017.884	329	0.000	1
20081004 15:15	7.2	6.2	7.2	85	4.9	6	16	247	0.00	1017.917	237	0.000	1
20081004 15:20	7.6	6.5	7.6	86	5.4	6	11	247	0.00	1017.917	408	0.000	2
20081004 15:25	7.7	6.7	7.7	84	5.1	6	16	270	0.00	1017.917	148	0.000	1
20081004 15:30	7.6	6.5	7.6	84	5.0	6	11	247	0.00	1017.917	162	0.000	1
20081004 15:35	7.5	7.5	7.5	84	5.0	5	10	247	0.00	1017.951	180	0.000	1
20081004 15:40	7.7	6.7	7.7	84	5.1	6	16	270	0.00	1018.019	122	0.000	0
20081004 15:45	7.6	5.2	7.6	81	4.5	13	35	270	0.00	1018.290	22	0.000	0
20081004 15:50	6.7	3.7	6.7	82	3.8	16	34	292	0.00	1018.629	30	0.000	0
20081004 15:55	5.9	3.0	5.9	83	3.3	14	27	270	0.20	1018.629	35	0.000	0
20081004 16:00	5.7	4.4	5.7	84	3.2	6	16	270	0.00	1018.730	52	0.060	0
20081004 16:05	5.7	5.7	5.7	85	3.3	3	8	292	0.00	1018.595	88	0.000	0
20081004 16:10	5.7	5.7	5.7	86	3.6	3	8	292	0.00	1018.561	106	0.000	0
20081004 16:15	5.8	5.8	5.8	86	3.7	3	8	292	0.00	1018.527	104	0.000	0
20081004 16:20	6.1	6.1	6.1	86	3.9	3	6	270	0.00	1018.527	143	0.000	1
20081004 16:25	6.3	6.3	6.3	85	3.9	5	10	270	0.00	1018.493	82	0.000	1
20081004 16:30	6.3	6.3	6.3	84	3.8	5	10	270	0.00	1018.493	53	0.000	0
20081004 16:35	6.4	6.4	6.4	85	4.1	5	10	270	0.00	1018.358	64	0.000	0
20081004 16:40	6.4	6.4	6.4	85	4.1	5	10	270	0.00	1018.425	75	0.000	0
20081004 16:45	6.4	6.4	6.4	85	4.1	5	8	270	0.00	1018.459	100	0.000	0
20081004 16:50	6.6	6.6	6.6	86	4.4	3	6	270	0.00	1018.425	132	0.000	0
20081004 16:55	6.7	6.7	6.7	86	4.5	5	16	270	0.00	1018.425	137	0.000	0
20081004 17:00	6.9	5.8	6.9	86	4.7	6	14	270	0.00	1018.425	124	0.040	0
20081004 17:05	7.1	5.6	7.1	85	4.7	8	16	270	0.00	1018.425	80	0.000	0
20081004 17:10	7.1	4.7	7.1	83	4.4	13	21	270	0.00	1018.392	60	0.000	0
20081004 17:15	7.2	5.3	7.2	83	4.5	10	18	270	0.00	1018.527	61	0.000	0
20081004 17:20	7.2	5.7	7.2	83	4.5	8	16	270	0.00	1018.595	79	0.000	0
20081004 17:25	7.3	5.5	7.3	82	4.4	10	21	270	0.00	1018.527	59	0.000	0
20081004 17:30	7.3	5.5	7.3	81	4.3	10	21	270	0.00	1018.527	42	0.000	0
20081004 17:35	7.2	6.2	7.2	83	4.5	6	14	270	0.00	1018.629	45	0.000	0
20081004 17:40	7.3	5.8	7.3	82	4.4	8	16	270	0.00	1018.730	56	0.000	0
20081004 17:45	7.3	5.5	7.3	80	4.1	10	18	270	0.00	1018.866	67	0.000	0
20081004 17:50	7.3	6.3	7.3	81	4.3	6	11	270	0.00	1018.899	48	0.000	0
20081004 17:55	7.2	5.7	7.2	79	3.8	8	21	270	0.00	1018.933	42	0.000	0
20081004 18:00	7.1	6.0	7.1	80	3.8	6	19	270	0.00	1019.035	40	0.040	0
20081004 18:05	6.9	5.8	6.9	80	3.7	6	16	270	0.00	1019.069	30	0.000	0
20081004 18:10	6.8	5.7	6.8	81	3.7	6	11	270	0.00	1019.238	21	0.000	0
20081004 18:15	6.7	6.7	6.7	82	3.8	5	8	292	0.00	1019.272	20	0.000	0
20081004 18:20	6.6	6.6	6.6	82	3.7	5	16	270	0.00	1019.374	16	0.000	0
20081004 18:25	6.4	5.3	6.4	82	3.6	6	11	247	0.00	1019.475	14	0.000	0
20081004 18:30	6.3	6.3	6.3	83	3.6	5	10	270	0.00	1019.577	10	0.000	0
20081004 18:35	6.2	4.9	6.2	83	3.5	6	16	247	0.00	1019.611	8	0.000	0
20081004 18:40	6.1	4.8	6.1	83	3.4	6	11	270	0.00	1019.678	4	0.000	0
20081004 18:45	6.0	4.8	6.0	83	3.3	6	16	270	0.00	1019.712	0	0.000	0
20081004 18:50	6.0	6.0	6.0	83	3.3	5	14	247	0.00	1019.780	0	0.000	0
20081004 18:55	6.0	6.0	6.0	83	3.3	5	10	270	0.00	1019.814	0	0.000	0
20081004 19:00	5.9	5.9	5.9	83	3.3	5	10	247	0.00	1019.814	0	0.020	0
20081004 19:05	5.9	5.9	5.9	83	3.3	5	10	270	0.00	1020.152	0	0.000	0
20081004 19:10	5.9	5.9	5.9	84	3.4	3	8	247	0.00	1020.254	0	0.000	0
20081004 19:15	5.9	5.9	5.9	84	3.4	5	11	247	0.00	1020.322	0	0.000	0
20081004 19:20	5.8	5.8	5.8	85	3.5	5	8	247	0.00	1020.457	0	0.000	0
20081004 19:25	5.8	5.8	5.8	85	3.5	5	11	270	0.00	1020.559	0	0.000	0
20081004 19:30	5.8	5.8	5.8	85	3.5	5	11	247	0.00	1020.627	0	0.000	0
20081004 19:35	5.8	5.8	5.8	85	3.5	5	8	247	0.00	1020.694	0	0.000	0
20081004 19:40	5.8	5.8	5.8	85	3.5	5	10	247	0.00	1020.694	0	0.000	0
20081004 19:45	5.7	5.7	5.7	85	3.4	3	8	247	0.00	1020.728	0	0.000	0
20081004 19:50	5.7	5.7	5.7	86	3.6	5	8	225	0.00	1020.864	0	0.000	0
20081004 19:55	5.7	5.7	5.7	86	3.6	5	8	247	0.00	1020.864	0	0.000	0
20081004 20:00	5.7	5.7	5.7	86	3.6	5	10	247	0.00	1020.897	0	0.020	0
20081004 20:05	5.7	5.7	5.7	86	3.5	3	6	270	0.00	1020.931	0	0.000	0
20081004 20:10	5.7	4.4	5.7	87	3.7	6	21	247	0.60	1020.999	0	0.000	0
20081004 20:15	5.4	5.4	5.4	87	3.5	5	11	225	0.20	1020.897	0	0.000	0
20081004 20:20	5.3	5.3	5.3	87	3.3	3	8	247	0.00	1020.965	0	0.000	0
20081004 20:25	5.2	5.2	5.2	88	3.4	3	8	247	0.00	1021.236	0	0.000	0
20081004 20:30	5.2	5.2	5.2	89	3.6	2	5	247	0.00	1021.270	0	0.000	0
20081004 20:35	5.2	5.2	5.2	90	3.7	2	5	247	0.00	1021.304	0	0.000	0
20081004 20:40	5.2	5.2	5.2	90	3.7	0	3	247	0.00	1021.304	0	0.000	0
20081004 20:45	5.3	5.3	5.3	90	3.8	0	5	247	0.00	1021.270	0	0.000	0
20081004 20:50	5.3	5.3	5.3	90	3.8	0	3	247	0.00	1021.134	0	0.000	0
20081004 20:55	5.3	5.3	5.3	90	3.8	2	5	247	0.00	1021.168	0	0.000	0
20081004 21:00	5.2	5.2	5.2	90	3.7	2	6	247	0.00	1021.304	0	0.000	0
20081004 21:05	5.2	5.2	5.2	90	3.7	2	8	247	0.00	1021.202	0	0.000	0
20081004 21:10	5.1	5.1	5.1	89	3.4	3	6	247	0.00	1021.134	0	0.000	0
20081004 21:15	4.9	4.9	4.9	89	3.3	2	6	247	0.00	1021.033	0	0.000	0
20081004 21:20	4.8	4.8	4.8	89	3.2	2	6	247	0.00	1021.101	0	0.000	0
20081004 21:25	4.7	4.7	4.7	89	3.1	2	6	247	0.00	1021.168	0	0.000	0
20081004 21:30	4.6	4.6	4.6	89	2.9	3	8	247	0.00	1021.372	0	0.000	0
20081004 21:35	4.4	4.4	4.4	89	2.7	3	6	247	0.00	1021.372	0	0.000	0
20081004 21:40	4.3	4.3	4.3	89	2.6	3	10	225	0.00	1021.338	0	0.000	0
20081004 21:45	4.2	4.2	4.2	90	2.7	5	10	225	0.00	1021.405	0	0.000	0
20081004 21:50	4.1	4.1	4.1	90	2.6	3	8	225	0.00	1021.405	0	0.000	0
20081004 21:55	4.1	4.1	4.1	90	2.6	3	10	225	0.00	1021.372	0	0.000	0
20081004 22:00	4.1	4.1	4.1	90	2.6	3	6	180	0.00	1021.338	0	0.000	0
20081004 22:05	4.1	4.1	4.1	90	2.6	3	6	225	0.00	1021.338	0	0.000	0
20081004 22:10	4.1	4.1	4.1	90	2.6	3	6	225	0.00	1021.338	0	0.000	0
20081004 22:15	4.1	4.1	4.1	90	2.6	2	8	225	0.00	1021.338	0	0.000	0
20081004 22:20	4.1	4.1	4.1	90	2.6	2	5	225	0.00	1021.304	0	0.000	0
20081004 22:25	4.0	4.0	4.0	90	2.5	2	6	225	0.00	1021.304	0	0.000	0
20081004 22:30	4.0	4.0	4.0	90	2.5	2	6	225	0.00	1021.338	0	0.000	0
20081004 22:35	4.0	4.0	4.0	90	2.5	2	5	225	0.00	1021.338	0	0.000	0
20081004 22:40	4.0	4.0	4.0	90	2.5	3	8	225	0.00	1021.338	0	0.000	0
20081004 22:45	4.0	4.0	4.0	91	2.7	3	10	247	0.00	1021.270	0	0.000	0
20081004 22:50	4.1	4.1	4.1	91	2.7	3	8	247	0.00	1021.304	0	0.000	0
20081004 22:55	4.1	4.1	4.1	91	2.8	3	10	225	0.00	1021.304	0	0.000	0
20081004 23:00	4.1	4.1	4.1	90	2.6	3	6	225	0.00	1021.202	0	0.000	0
20081004 23:05	4.1	4.1	4.1	90	2.6	3	11	225	0.00	1021.236	0	0.000	0
20081004 23:10	4.1	4.1	4.1	90	2.6	2	6	225	0.00	1021.236	0	0.000	0
20081004 23:15	4.1	4.1	4.1	90	2.6	3	6	225	0.00	1021.236	0	0.000	0
20081004 23:20	4.0	4.0	4.0	90	2.5	3	8	225	0.00	1021.202	0	0.000	0
20081004 23:25	3.9	3.9	3.9	90	2.5	3	8	202	0.00	1021.202	0	0.000	0
20081004 23:30	3.9	3.9	3.9	90	2.4	3	6	247	0.00	1021.168	0	0.000	0
20081004 23:35	3.9	3.9	3.9	90	2.4	2	6	247	0.00	1021.134	0	0.000	0
20081004 23:40	3.8	3.8	3.8	90	2.3	2	8	247	0.00	1021.168	0	0.000	0
20081004 23:45	3.8	3.8	3.8	90	2.3	3	5	247	0.00	1021.134	0	0.000	0
20081004 23:50	3.8	3.8	3.8	91	2.5	2	5	247	0.00	1021.067	0	0.000	0
20081004 23:55	3.9	3.9	3.9	91	2.6	2	6	247	0.00	1020.965	0	0.000	0
20081004 24:00	3.9	3.9	3.9	91	2.6	3	6	202	0.00	1020.965	0	0.000	0



Please note the license to use and transfer of this data:
http://creativecommons.org/licenses/by-nc-sa/3.0/deed.en

Bitte beachten sie die Lizenz zur Verwertung und Weitergabe der Daten:
http://creativecommons.org/licenses/by-nc-sa/3.0/deed.de

zurück zur Übersicht der Archivdaten (Monats und Tagesdaten)

Cookies helfen bei der Bereitstellung von Inhalten. Durch die Nutzung dieser Seiten erklärst du dich damit einverstanden, dass Cookies auf deinem Rechner gespeichert werden. Weitere Information